createdAt,value
2022-10-25T00:03:28.772Z,55.00
2022-10-25T00:08:33.062Z,55.10
2022-10-25T00:13:36.286Z,55.10
2022-10-25T00:18:39.220Z,55.00
2022-10-25T00:23:43.803Z,55.70
2022-10-25T00:28:47.030Z,55.10
2022-10-25T00:33:50.233Z,55.10
2022-10-25T00:38:55.486Z,55.10
2022-10-25T00:44:36.663Z,55.00
2022-10-25T00:49:39.617Z,55.30
2022-10-25T00:54:47.195Z,55.10
2022-10-25T00:59:50.672Z,55.20
2022-10-25T01:04:54.600Z,55.20
2022-10-25T01:09:59.636Z,55.20
2022-10-25T01:15:03.512Z,55.20
2022-10-25T01:20:39.156Z,55.30
2022-10-25T01:26:15.799Z,55.60
2022-10-25T01:31:28.384Z,55.50
2022-10-25T01:36:42.161Z,55.60
2022-10-25T01:41:54.538Z,55.50
2022-10-25T01:47:03.351Z,55.50
2022-10-25T01:52:06.352Z,55.70
2022-10-25T01:57:37.565Z,55.70
2022-10-25T02:02:52.536Z,56.10
2022-10-25T02:08:03.433Z,56.00
2022-10-25T02:13:16.583Z,55.90
2022-10-25T02:18:24.569Z,56.00
2022-10-25T02:23:28.643Z,55.90
2022-10-25T02:28:33.520Z,55.90
2022-10-25T02:33:38.270Z,56.00
2022-10-25T02:38:41.850Z,56.10
2022-10-25T02:43:45.043Z,56.00
2022-10-25T02:48:50.314Z,56.00
2022-10-25T02:53:53.294Z,56.10
2022-10-25T02:58:58.528Z,56.00
2022-10-25T03:04:03.006Z,56.10
2022-10-25T03:09:06.316Z,56.20
2022-10-25T03:14:09.304Z,56.20
2022-10-25T03:19:13.580Z,56.20
2022-10-25T03:24:16.781Z,56.20
2022-10-25T03:29:19.843Z,56.20
2022-10-25T03:34:24.201Z,56.30
2022-10-25T03:39:27.149Z,56.30
2022-10-25T03:44:30.328Z,56.20
2022-10-25T03:49:34.621Z,56.30
2022-10-25T03:54:37.578Z,56.30
2022-10-25T03:59:40.612Z,56.20
2022-10-25T04:04:44.955Z,56.20
2022-10-25T04:09:47.969Z,56.30
2022-10-25T04:14:50.980Z,56.50
2022-10-25T04:19:55.307Z,56.40
2022-10-25T04:24:58.204Z,56.60
2022-10-25T04:30:01.132Z,56.50
2022-10-25T04:35:06.493Z,56.50
2022-10-25T04:40:10.900Z,56.40
2022-10-25T04:45:13.839Z,56.30
2022-10-25T04:50:18.291Z,56.20
2022-10-25T04:55:21.194Z,56.20
2022-10-25T05:00:24.530Z,56.10
2022-10-25T05:05:29.193Z,56.30
2022-10-25T05:10:32.156Z,56.60
2022-10-25T05:15:35.103Z,56.70
2022-10-25T05:20:39.379Z,56.80
2022-10-25T05:25:42.325Z,57.00
2022-10-25T05:30:45.522Z,57.00
2022-10-25T05:35:49.837Z,57.10
2022-10-25T05:40:56.211Z,57.10
2022-10-25T05:46:04.611Z,58.00
2022-10-25T05:56:40.599Z,57.60
2022-10-25T06:01:45.589Z,57.30
2022-10-25T06:06:52.115Z,57.40
2022-10-25T06:11:55.105Z,57.50
2022-10-25T06:16:58.011Z,57.50
2022-10-25T06:22:02.339Z,57.50
2022-10-25T06:27:05.602Z,57.50
2022-10-25T06:32:08.542Z,57.50
2022-10-25T06:37:12.804Z,57.60
2022-10-25T06:42:15.734Z,57.70
2022-10-25T06:47:19.280Z,57.60
2022-10-25T06:52:23.618Z,57.60
2022-10-25T06:57:26.609Z,57.70
2022-10-25T07:02:29.617Z,57.60
2022-10-25T07:07:34.007Z,57.80
2022-10-25T07:12:38.067Z,57.90
2022-10-25T07:17:41.067Z,57.80
2022-10-25T07:22:46.344Z,57.80
2022-10-25T07:27:49.576Z,57.80
2022-10-25T07:32:52.755Z,57.80
2022-10-25T07:37:57.015Z,57.80
2022-10-25T07:43:00.000Z,57.90
2022-10-25T07:48:03.017Z,58.00
2022-10-25T07:53:07.619Z,58.10
2022-10-25T07:58:12.705Z,58.10
2022-10-25T08:03:17.180Z,58.30
2022-10-25T08:08:23.219Z,58.10
2022-10-25T08:13:26.193Z,59.00
2022-10-25T08:18:29.340Z,58.30
2022-10-25T08:23:34.092Z,58.40
2022-10-25T08:28:37.095Z,58.40
2022-10-25T08:33:40.139Z,58.50
2022-10-25T08:38:44.428Z,58.40
2022-10-25T08:44:09.845Z,58.40
2022-10-25T08:49:20.569Z,58.50
2022-10-25T08:54:28.647Z,58.20
2022-10-25T08:59:35.300Z,59.20
2022-10-25T09:04:38.520Z,58.60
2022-10-25T09:09:50.908Z,58.60
2022-10-25T09:15:02.923Z,58.50
2022-10-25T09:20:07.814Z,58.30
2022-10-25T09:25:21.023Z,58.20
2022-10-25T09:30:24.055Z,57.90
2022-10-25T09:35:30.545Z,57.60
2022-10-25T09:40:47.650Z,57.90
2022-10-25T09:45:55.250Z,57.70
2022-10-25T09:51:05.209Z,57.50
2022-10-25T09:56:09.692Z,57.40
2022-10-25T10:01:17.734Z,57.30
2022-10-25T10:06:24.703Z,57.80
2022-10-25T10:11:30.179Z,57.40
2022-10-25T10:16:36.406Z,57.30
2022-10-25T10:21:43.682Z,57.20
2022-10-25T10:26:51.600Z,57.00
2022-10-25T10:31:56.834Z,57.00
2022-10-25T10:37:05.192Z,56.90
2022-10-25T10:42:18.045Z,56.70
2022-10-25T10:47:22.462Z,56.40
2022-10-25T10:52:31.133Z,56.50
2022-10-25T10:57:36.983Z,56.50
2022-10-25T11:02:42.372Z,56.30
2022-10-25T11:07:45.986Z,56.30
2022-10-25T11:13:12.750Z,56.40
2022-10-25T11:18:17.193Z,56.20
2022-10-25T11:23:28.607Z,56.50
2022-10-25T11:28:49.123Z,56.20
2022-10-25T11:34:10.499Z,55.70
2022-10-25T11:39:35.881Z,55.20
2022-10-25T11:45:06.990Z,55.30
2022-10-25T11:50:22.917Z,55.10
2022-10-25T11:55:35.797Z,55.20
2022-10-25T12:00:51.106Z,54.80
2022-10-25T12:06:05.166Z,55.20
2022-10-25T12:11:14.997Z,54.70
2022-10-25T12:16:24.344Z,55.00
2022-10-25T12:21:32.193Z,55.30
2022-10-25T12:26:38.467Z,54.50
2022-10-25T12:31:47.144Z,54.50
2022-10-25T12:36:53.923Z,54.00
2022-10-25T12:42:02.851Z,53.60
2022-10-25T12:47:27.696Z,53.30
2022-10-25T12:52:34.007Z,53.10
2022-10-25T12:57:48.254Z,53.50
2022-10-25T13:03:35.275Z,53.40
2022-10-25T13:08:39.987Z,52.70
2022-10-25T13:13:50.693Z,52.60
2022-10-25T13:19:42.800Z,52.10
2022-10-25T13:24:47.905Z,52.00
2022-10-25T13:30:26.354Z,52.20
2022-10-25T13:35:59.989Z,52.20
2022-10-25T13:41:08.545Z,52.30
2022-10-25T13:46:12.571Z,53.10
2022-10-25T13:51:18.475Z,53.40
2022-10-25T13:56:35.719Z,53.10
2022-10-25T14:01:55.629Z,52.40
2022-10-25T14:07:38.424Z,52.50
2022-10-25T14:12:48.588Z,52.20
2022-10-25T14:17:52.167Z,51.90
2022-10-25T14:23:00.603Z,52.00
2022-10-25T14:28:08.909Z,52.00
2022-10-25T14:33:24.043Z,52.20
2022-10-25T14:38:29.091Z,51.80
2022-10-25T14:43:33.860Z,51.80
2022-10-25T14:48:37.237Z,52.00
2022-10-25T14:53:55.285Z,52.30
2022-10-25T14:58:59.173Z,51.80
2022-10-25T15:04:02.609Z,52.20
2022-10-25T15:14:31.816Z,51.80
2022-10-25T15:25:02.690Z,51.50
2022-10-25T15:30:06.118Z,52.00
2022-10-25T15:35:23.159Z,52.10
2022-10-25T15:40:27.419Z,51.80
2022-10-25T15:45:31.428Z,52.00
2022-10-25T15:50:34.838Z,52.20
2022-10-25T15:55:39.165Z,52.20
2022-10-25T16:00:42.760Z,52.10
2022-10-25T16:05:45.721Z,52.10
2022-10-25T16:10:50.158Z,52.10
2022-10-25T16:15:53.239Z,52.30
2022-10-25T16:20:57.857Z,52.30
2022-10-25T16:26:02.212Z,52.40
2022-10-25T16:31:05.211Z,52.20
2022-10-25T16:36:09.477Z,52.10
2022-10-25T16:41:24.104Z,52.20
2022-10-25T16:46:27.108Z,52.30
2022-10-25T16:51:30.035Z,52.20
2022-10-25T16:56:34.425Z,52.20
2022-10-25T17:01:39.975Z,52.40
2022-10-25T17:06:43.267Z,52.50
2022-10-25T17:11:47.576Z,52.70
2022-10-25T17:16:50.479Z,52.70
2022-10-25T17:21:53.434Z,52.80
2022-10-25T17:26:57.728Z,52.80
2022-10-25T17:32:01.185Z,52.70
2022-10-25T17:37:04.163Z,52.80
2022-10-25T17:42:08.665Z,52.80
2022-10-25T17:47:12.689Z,53.00
2022-10-25T17:52:15.638Z,53.00
2022-10-25T17:57:19.911Z,53.00
2022-10-25T18:02:22.947Z,53.00
2022-10-25T18:07:27.182Z,53.10
2022-10-25T18:12:33.408Z,53.20
2022-10-25T18:17:36.389Z,53.20
2022-10-25T18:22:39.303Z,53.40
2022-10-25T18:27:43.585Z,53.40
2022-10-25T18:32:46.511Z,53.40
2022-10-25T18:37:49.703Z,53.40
2022-10-25T18:42:54.236Z,53.40
2022-10-25T18:47:59.398Z,53.50
2022-10-25T18:53:03.741Z,54.10
2022-10-25T18:58:08.100Z,53.40
2022-10-25T19:03:12.701Z,53.40
2022-10-25T19:08:15.668Z,53.40
2022-10-25T19:13:20.107Z,53.40
2022-10-25T19:18:25.019Z,53.40
2022-10-25T19:23:27.973Z,53.50
2022-10-25T19:28:32.654Z,53.50
2022-10-25T19:33:36.139Z,53.70
2022-10-25T19:38:40.352Z,53.70
2022-10-25T19:43:44.880Z,53.90
2022-10-25T19:48:47.978Z,53.90
2022-10-25T19:53:51.109Z,54.00
2022-10-25T19:58:55.411Z,54.10
2022-10-25T20:03:59.532Z,54.20
2022-10-25T20:09:03.088Z,54.10
2022-10-25T20:14:08.484Z,54.10
2022-10-25T20:19:14.535Z,54.90
2022-10-25T20:24:17.502Z,54.30
2022-10-25T20:29:23.773Z,54.20
2022-10-25T20:34:26.771Z,54.20
2022-10-25T20:39:29.753Z,54.10
2022-10-25T20:44:34.073Z,54.30
2022-10-25T20:49:37.017Z,54.20
2022-10-25T20:54:39.964Z,54.10
2022-10-25T20:59:44.297Z,54.20
2022-10-25T21:04:53.614Z,54.30
2022-10-25T21:09:56.939Z,54.20
2022-10-25T21:15:01.254Z,54.10
2022-10-25T21:20:04.555Z,54.20
2022-10-25T21:25:08.126Z,54.20
2022-10-25T21:30:12.827Z,54.10
2022-10-25T21:35:15.969Z,54.20
2022-10-25T21:40:19.803Z,54.20
2022-10-25T21:45:24.153Z,54.10
2022-10-25T21:50:27.142Z,54.20
2022-10-25T21:55:30.056Z,54.20
2022-10-25T22:00:34.341Z,54.10
2022-10-25T22:05:42.976Z,54.20
2022-10-25T22:10:45.896Z,54.20
2022-10-25T22:16:00.225Z,54.30
2022-10-25T22:21:05.558Z,54.50
2022-10-25T22:26:10.835Z,54.20
2022-10-25T22:31:17.436Z,54.20
2022-10-25T22:36:21.397Z,54.20
2022-10-25T22:41:25.807Z,54.30
2022-10-25T22:46:31.813Z,54.30
2022-10-25T22:51:34.956Z,54.30
2022-10-25T22:56:37.897Z,54.30
2022-10-25T23:01:42.206Z,55.10
2022-10-25T23:06:45.147Z,54.60
2022-10-25T23:11:49.959Z,54.40
2022-10-25T23:16:54.231Z,54.50
2022-10-25T23:21:57.199Z,54.70
2022-10-25T23:27:00.120Z,54.70
2022-10-25T23:32:04.546Z,54.70
2022-10-25T23:37:07.477Z,54.70
2022-10-25T23:42:10.431Z,54.60
2022-10-25T23:47:14.683Z,54.50
2022-10-25T23:52:17.600Z,54.50
2022-10-25T23:57:20.528Z,54.50
